sensor_id;sensor_type;location;lat;lon;timestamp;temperature;humidity
60723;DHT22;46574;52.818;6.516;2023-02-13T00:00:15;7.50;99.90
60723;DHT22;46574;52.818;6.516;2023-02-13T00:02:41;7.50;99.90
60723;DHT22;46574;52.818;6.516;2023-02-13T00:05:07;7.40;99.90
60723;DHT22;46574;52.818;6.516;2023-02-13T00:07:32;7.40;99.90
60723;DHT22;46574;52.818;6.516;2023-02-13T00:09:58;7.40;99.90
60723;DHT22;46574;52.818;6.516;2023-02-13T00:12:23;7.40;99.90
60723;DHT22;46574;52.818;6.516;2023-02-13T00:14:49;7.40;99.90
60723;DHT22;46574;52.818;6.516;2023-02-13T00:17:15;7.40;99.90
60723;DHT22;46574;52.818;6.516;2023-02-13T00:19:40;7.40;99.90
60723;DHT22;46574;52.818;6.516;2023-02-13T00:22:06;7.50;99.90
60723;DHT22;46574;52.818;6.516;2023-02-13T00:24:32;7.40;99.90
60723;DHT22;46574;52.818;6.516;2023-02-13T00:26:57;7.50;99.90
60723;DHT22;46574;52.818;6.516;2023-02-13T00:29:23;7.50;99.90
60723;DHT22;46574;52.818;6.516;2023-02-13T00:31:49;7.50;99.90
60723;DHT22;46574;52.818;6.516;2023-02-13T00:34:14;7.50;99.90
60723;DHT22;46574;52.818;6.516;2023-02-13T00:36:40;7.50;99.90
60723;DHT22;46574;52.818;6.516;2023-02-13T00:39:05;7.40;99.90
60723;DHT22;46574;52.818;6.516;2023-02-13T00:41:31;7.40;99.90
60723;DHT22;46574;52.818;6.516;2023-02-13T00:43:57;7.40;99.90
60723;DHT22;46574;52.818;6.516;2023-02-13T00:46:22;7.40;99.90
60723;DHT22;46574;52.818;6.516;2023-02-13T00:48:48;7.40;99.90
60723;DHT22;46574;52.818;6.516;2023-02-13T00:51:14;7.40;99.90
60723;DHT22;46574;52.818;6.516;2023-02-13T00:53:40;7.40;99.90
60723;DHT22;46574;52.818;6.516;2023-02-13T00:56:06;7.40;99.90
60723;DHT22;46574;52.818;6.516;2023-02-13T00:58:32;7.40;99.90
60723;DHT22;46574;52.818;6.516;2023-02-13T01:00:58;7.40;99.90
60723;DHT22;46574;52.818;6.516;2023-02-13T01:03:24;7.40;99.90
60723;DHT22;46574;52.818;6.516;2023-02-13T01:05:51;7.40;99.90
60723;DHT22;46574;52.818;6.516;2023-02-13T01:08:17;7.40;99.90
60723;DHT22;46574;52.818;6.516;2023-02-13T01:10:45;7.40;99.90
60723;DHT22;46574;52.818;6.516;2023-02-13T01:13:12;7.40;99.90
60723;DHT22;46574;52.818;6.516;2023-02-13T01:15:38;7.40;99.90
60723;DHT22;46574;52.818;6.516;2023-02-13T01:18:04;7.40;99.90
60723;DHT22;46574;52.818;6.516;2023-02-13T01:20:30;7.40;99.90
60723;DHT22;46574;52.818;6.516;2023-02-13T01:22:56;7.40;99.90
60723;DHT22;46574;52.818;6.516;2023-02-13T01:25:22;7.40;99.90
60723;DHT22;46574;52.818;6.516;2023-02-13T01:27:48;7.40;99.90
60723;DHT22;46574;52.818;6.516;2023-02-13T01:30:17;7.40;99.90
60723;DHT22;46574;52.818;6.516;2023-02-13T01:32:44;7.40;99.90
60723;DHT22;46574;52.818;6.516;2023-02-13T01:35:11;7.40;99.90
60723;DHT22;46574;52.818;6.516;2023-02-13T01:37:38;7.40;99.90
60723;DHT22;46574;52.818;6.516;2023-02-13T01:40:05;7.40;99.90
60723;DHT22;46574;52.818;6.516;2023-02-13T01:42:33;7.40;99.90
60723;DHT22;46574;52.818;6.516;2023-02-13T01:45:00;7.40;99.90
60723;DHT22;46574;52.818;6.516;2023-02-13T01:47:38;7.40;99.90
60723;DHT22;46574;52.818;6.516;2023-02-13T01:50:36;7.30;99.90
60723;DHT22;46574;52.818;6.516;2023-02-13T01:55:33;7.40;99.90
60723;DHT22;46574;52.818;6.516;2023-02-13T01:58:09;7.30;99.90
60723;DHT22;46574;52.818;6.516;2023-02-13T02:00:37;7.40;99.90
60723;DHT22;46574;52.818;6.516;2023-02-13T02:03:13;7.40;99.90
60723;DHT22;46574;52.818;6.516;2023-02-13T02:05:41;7.40;99.90
60723;DHT22;46574;52.818;6.516;2023-02-13T02:08:08;7.40;99.90
60723;DHT22;46574;52.818;6.516;2023-02-13T02:10:35;7.30;99.90
60723;DHT22;46574;52.818;6.516;2023-02-13T02:13:13;7.30;99.90
60723;DHT22;46574;52.818;6.516;2023-02-13T02:15:40;7.40;99.90
60723;DHT22;46574;52.818;6.516;2023-02-13T02:18:18;7.30;99.90
60723;DHT22;46574;52.818;6.516;2023-02-13T02:21:03;7.40;99.90
60723;DHT22;46574;52.818;6.516;2023-02-13T02:27:35;7.30;99.90
60723;DHT22;46574;52.818;6.516;2023-02-13T02:29:47;7.40;99.90
60723;DHT22;46574;52.818;6.516;2023-02-13T02:38:12;7.40;99.90
60723;DHT22;46574;52.818;6.516;2023-02-13T02:43:30;7.30;99.90
60723;DHT22;46574;52.818;6.516;2023-02-13T02:54:42;7.30;99.90
60723;DHT22;46574;52.818;6.516;2023-02-13T02:57:30;7.30;99.90
60723;DHT22;46574;52.818;6.516;2023-02-13T03:00:18;7.30;99.90
60723;DHT22;46574;52.818;6.516;2023-02-13T03:03:19;7.30;99.90
60723;DHT22;46574;52.818;6.516;2023-02-13T03:06:13;7.30;99.90
60723;DHT22;46574;52.818;6.516;2023-02-13T03:08:44;7.30;99.90
60723;DHT22;46574;52.818;6.516;2023-02-13T03:11:29;7.30;99.90
60723;DHT22;46574;52.818;6.516;2023-02-13T03:14:18;7.30;99.90
60723;DHT22;46574;52.818;6.516;2023-02-13T03:16:45;7.30;99.90
60723;DHT22;46574;52.818;6.516;2023-02-13T03:23:14;7.30;99.90
60723;DHT22;46574;52.818;6.516;2023-02-13T03:26:04;7.30;99.90
60723;DHT22;46574;52.818;6.516;2023-02-13T03:31:27;7.30;99.90
60723;DHT22;46574;52.818;6.516;2023-02-13T03:41:57;7.20;99.90
60723;DHT22;46574;52.818;6.516;2023-02-13T03:44:27;7.30;99.90
60723;DHT22;46574;52.818;6.516;2023-02-13T03:46:58;7.30;99.90
60723;DHT22;46574;52.818;6.516;2023-02-13T03:55:00;7.30;99.90
60723;DHT22;46574;52.818;6.516;2023-02-13T03:57:48;7.30;99.90
60723;DHT22;46574;52.818;6.516;2023-02-13T04:00:42;7.20;99.90
60723;DHT22;46574;52.818;6.516;2023-02-13T04:06:18;7.30;99.90
60723;DHT22;46574;52.818;6.516;2023-02-13T04:08:41;7.20;99.90
60723;DHT22;46574;52.818;6.516;2023-02-13T04:11:31;7.20;99.90
60723;DHT22;46574;52.818;6.516;2023-02-13T04:14:06;7.20;99.90
60723;DHT22;46574;52.818;6.516;2023-02-13T04:16:40;7.20;99.90
60723;DHT22;46574;52.818;6.516;2023-02-13T04:19:07;7.30;99.90
60723;DHT22;46574;52.818;6.516;2023-02-13T04:21:39;7.30;99.90
60723;DHT22;46574;52.818;6.516;2023-02-13T04:24:05;7.20;99.90
60723;DHT22;46574;52.818;6.516;2023-02-13T04:26:37;7.20;99.90
60723;DHT22;46574;52.818;6.516;2023-02-13T04:29:04;7.30;99.90
60723;DHT22;46574;52.818;6.516;2023-02-13T04:31:30;7.30;99.90
60723;DHT22;46574;52.818;6.516;2023-02-13T04:33:56;7.20;99.90
60723;DHT22;46574;52.818;6.516;2023-02-13T04:36:21;7.20;99.90
60723;DHT22;46574;52.818;6.516;2023-02-13T04:38:47;7.10;99.90
60723;DHT22;46574;52.818;6.516;2023-02-13T04:41:13;7.20;99.90
60723;DHT22;46574;52.818;6.516;2023-02-13T04:43:39;7.20;99.90
60723;DHT22;46574;52.818;6.516;2023-02-13T04:46:04;7.20;99.90
60723;DHT22;46574;52.818;6.516;2023-02-13T04:48:30;7.20;99.90
60723;DHT22;46574;52.818;6.516;2023-02-13T04:50:56;7.20;99.90
60723;DHT22;46574;52.818;6.516;2023-02-13T04:53:21;7.20;99.90
60723;DHT22;46574;52.818;6.516;2023-02-13T04:55:47;7.20;99.90
60723;DHT22;46574;52.818;6.516;2023-02-13T04:58:12;7.20;99.90
60723;DHT22;46574;52.818;6.516;2023-02-13T05:00:38;7.20;99.90
60723;DHT22;46574;52.818;6.516;2023-02-13T05:03:05;7.20;99.90
60723;DHT22;46574;52.818;6.516;2023-02-13T05:05:32;7.20;99.90
60723;DHT22;46574;52.818;6.516;2023-02-13T05:07:57;7.20;99.90
60723;DHT22;46574;52.818;6.516;2023-02-13T05:10:23;7.20;99.90
60723;DHT22;46574;52.818;6.516;2023-02-13T05:12:49;7.20;99.90
60723;DHT22;46574;52.818;6.516;2023-02-13T05:15:14;7.20;99.90
60723;DHT22;46574;52.818;6.516;2023-02-13T05:17:43;7.20;99.90
60723;DHT22;46574;52.818;6.516;2023-02-13T05:20:09;7.20;99.90
60723;DHT22;46574;52.818;6.516;2023-02-13T05:22:35;7.20;99.90
60723;DHT22;46574;52.818;6.516;2023-02-13T05:25:19;7.20;99.90
60723;DHT22;46574;52.818;6.516;2023-02-13T05:27:45;7.20;99.90
60723;DHT22;46574;52.818;6.516;2023-02-13T05:30:11;7.20;99.90
60723;DHT22;46574;52.818;6.516;2023-02-13T05:32:37;7.20;99.90
60723;DHT22;46574;52.818;6.516;2023-02-13T05:35:04;7.20;99.90
60723;DHT22;46574;52.818;6.516;2023-02-13T05:37:29;7.20;99.90
60723;DHT22;46574;52.818;6.516;2023-02-13T05:39:55;7.20;99.90
60723;DHT22;46574;52.818;6.516;2023-02-13T05:42:23;7.20;99.90
60723;DHT22;46574;52.818;6.516;2023-02-13T05:44:52;7.20;99.90
60723;DHT22;46574;52.818;6.516;2023-02-13T05:47:18;7.20;99.90
60723;DHT22;46574;52.818;6.516;2023-02-13T05:49:44;7.20;99.90
60723;DHT22;46574;52.818;6.516;2023-02-13T05:52:09;7.20;99.90
60723;DHT22;46574;52.818;6.516;2023-02-13T05:54:35;7.20;99.90
60723;DHT22;46574;52.818;6.516;2023-02-13T05:57:03;7.20;99.90
60723;DHT22;46574;52.818;6.516;2023-02-13T05:59:28;7.20;99.90
60723;DHT22;46574;52.818;6.516;2023-02-13T06:01:54;7.20;99.90
60723;DHT22;46574;52.818;6.516;2023-02-13T06:04:20;7.20;99.90
60723;DHT22;46574;52.818;6.516;2023-02-13T06:06:45;7.20;99.90
60723;DHT22;46574;52.818;6.516;2023-02-13T06:09:11;7.20;99.90
60723;DHT22;46574;52.818;6.516;2023-02-13T06:11:37;7.10;99.90
60723;DHT22;46574;52.818;6.516;2023-02-13T06:14:02;7.10;99.90
60723;DHT22;46574;52.818;6.516;2023-02-13T06:16:28;7.10;99.90
60723;DHT22;46574;52.818;6.516;2023-02-13T06:18:56;7.10;99.90
60723;DHT22;46574;52.818;6.516;2023-02-13T06:21:21;7.10;99.90
60723;DHT22;46574;52.818;6.516;2023-02-13T06:23:47;7.10;99.90
60723;DHT22;46574;52.818;6.516;2023-02-13T06:26:13;7.00;99.90
60723;DHT22;46574;52.818;6.516;2023-02-13T06:28:38;7.10;99.90
60723;DHT22;46574;52.818;6.516;2023-02-13T06:31:04;7.10;99.90
60723;DHT22;46574;52.818;6.516;2023-02-13T06:33:30;7.00;99.90
60723;DHT22;46574;52.818;6.516;2023-02-13T06:35:56;7.10;99.90
60723;DHT22;46574;52.818;6.516;2023-02-13T06:38:21;7.10;99.90
60723;DHT22;46574;52.818;6.516;2023-02-13T06:40:48;7.10;99.90
60723;DHT22;46574;52.818;6.516;2023-02-13T06:43:15;7.10;99.90
60723;DHT22;46574;52.818;6.516;2023-02-13T06:45:42;7.10;99.90
60723;DHT22;46574;52.818;6.516;2023-02-13T06:48:08;7.10;99.90
60723;DHT22;46574;52.818;6.516;2023-02-13T06:50:34;7.10;99.90
60723;DHT22;46574;52.818;6.516;2023-02-13T06:53:00;7.00;99.90
60723;DHT22;46574;52.818;6.516;2023-02-13T06:55:26;7.10;99.90
60723;DHT22;46574;52.818;6.516;2023-02-13T06:57:52;7.10;99.90
60723;DHT22;46574;52.818;6.516;2023-02-13T07:00:18;7.10;99.90
60723;DHT22;46574;52.818;6.516;2023-02-13T07:02:45;7.10;99.90
60723;DHT22;46574;52.818;6.516;2023-02-13T07:05:12;7.10;99.90
60723;DHT22;46574;52.818;6.516;2023-02-13T07:07:39;7.10;99.90
60723;DHT22;46574;52.818;6.516;2023-02-13T07:10:07;7.10;99.90
60723;DHT22;46574;52.818;6.516;2023-02-13T07:12:34;7.10;99.90
60723;DHT22;46574;52.818;6.516;2023-02-13T07:15:01;7.10;99.90
60723;DHT22;46574;52.818;6.516;2023-02-13T07:17:27;7.10;99.90
60723;DHT22;46574;52.818;6.516;2023-02-13T07:19:52;7.10;99.90
60723;DHT22;46574;52.818;6.516;2023-02-13T07:22:19;7.10;99.90
60723;DHT22;46574;52.818;6.516;2023-02-13T07:24:45;7.10;99.90
60723;DHT22;46574;52.818;6.516;2023-02-13T07:27:10;7.10;99.90
60723;DHT22;46574;52.818;6.516;2023-02-13T07:29:36;7.20;99.90
60723;DHT22;46574;52.818;6.516;2023-02-13T07:32:02;7.20;99.90
60723;DHT22;46574;52.818;6.516;2023-02-13T07:34:27;7.20;99.90
60723;DHT22;46574;52.818;6.516;2023-02-13T07:36:53;7.20;99.90
60723;DHT22;46574;52.818;6.516;2023-02-13T07:39:19;7.20;99.90
60723;DHT22;46574;52.818;6.516;2023-02-13T07:41:44;7.20;99.90
60723;DHT22;46574;52.818;6.516;2023-02-13T07:44:10;7.20;99.90
60723;DHT22;46574;52.818;6.516;2023-02-13T07:46:36;7.30;99.90
60723;DHT22;46574;52.818;6.516;2023-02-13T07:49:02;7.30;99.90
60723;DHT22;46574;52.818;6.516;2023-02-13T07:51:28;7.30;99.90
60723;DHT22;46574;52.818;6.516;2023-02-13T07:53:54;7.30;99.90
60723;DHT22;46574;52.818;6.516;2023-02-13T07:56:20;7.40;99.90
60723;DHT22;46574;52.818;6.516;2023-02-13T07:58:46;7.40;99.90
60723;DHT22;46574;52.818;6.516;2023-02-13T08:01:14;7.40;99.90
60723;DHT22;46574;52.818;6.516;2023-02-13T08:03:40;7.40;99.90
60723;DHT22;46574;52.818;6.516;2023-02-13T08:06:07;7.40;99.90
60723;DHT22;46574;52.818;6.516;2023-02-13T08:08:33;7.40;99.90
60723;DHT22;46574;52.818;6.516;2023-02-13T08:11:10;7.50;99.90
60723;DHT22;46574;52.818;6.516;2023-02-13T08:13:56;7.50;99.90
60723;DHT22;46574;52.818;6.516;2023-02-13T08:16:21;7.60;99.90
60723;DHT22;46574;52.818;6.516;2023-02-13T08:18:47;7.60;99.90
60723;DHT22;46574;52.818;6.516;2023-02-13T08:21:12;7.60;99.90
60723;DHT22;46574;52.818;6.516;2023-02-13T08:23:39;7.60;99.90
60723;DHT22;46574;52.818;6.516;2023-02-13T08:26:05;7.60;99.90
60723;DHT22;46574;52.818;6.516;2023-02-13T08:28:30;7.60;99.90
60723;DHT22;46574;52.818;6.516;2023-02-13T08:30:56;7.70;99.90
60723;DHT22;46574;52.818;6.516;2023-02-13T08:33:22;7.70;99.90
60723;DHT22;46574;52.818;6.516;2023-02-13T08:35:48;7.70;99.90
60723;DHT22;46574;52.818;6.516;2023-02-13T08:38:13;7.80;99.90
60723;DHT22;46574;52.818;6.516;2023-02-13T08:40:39;7.80;99.90
60723;DHT22;46574;52.818;6.516;2023-02-13T08:43:05;7.80;99.90
60723;DHT22;46574;52.818;6.516;2023-02-13T08:45:32;7.80;99.90
60723;DHT22;46574;52.818;6.516;2023-02-13T08:47:59;7.90;99.90
60723;DHT22;46574;52.818;6.516;2023-02-13T08:50:26;7.90;99.90
60723;DHT22;46574;52.818;6.516;2023-02-13T08:52:52;7.90;99.90
60723;DHT22;46574;52.818;6.516;2023-02-13T08:55:18;7.90;99.90
60723;DHT22;46574;52.818;6.516;2023-02-13T08:57:45;7.90;99.90
60723;DHT22;46574;52.818;6.516;2023-02-13T09:00:11;7.90;99.90
60723;DHT22;46574;52.818;6.516;2023-02-13T09:02:36;8.00;99.90
60723;DHT22;46574;52.818;6.516;2023-02-13T09:05:02;8.00;99.90
60723;DHT22;46574;52.818;6.516;2023-02-13T09:07:28;8.00;99.90
60723;DHT22;46574;52.818;6.516;2023-02-13T09:09:53;8.00;99.90
60723;DHT22;46574;52.818;6.516;2023-02-13T09:12:19;8.00;99.90
60723;DHT22;46574;52.818;6.516;2023-02-13T09:14:46;8.10;99.90
60723;DHT22;46574;52.818;6.516;2023-02-13T09:17:12;8.10;99.90
60723;DHT22;46574;52.818;6.516;2023-02-13T09:19:38;8.10;99.90
60723;DHT22;46574;52.818;6.516;2023-02-13T09:22:04;8.20;99.90
60723;DHT22;46574;52.818;6.516;2023-02-13T09:24:30;8.20;99.90
60723;DHT22;46574;52.818;6.516;2023-02-13T09:26:55;8.20;99.90
60723;DHT22;46574;52.818;6.516;2023-02-13T09:29:21;8.20;99.90
60723;DHT22;46574;52.818;6.516;2023-02-13T09:31:47;8.20;99.90
60723;DHT22;46574;52.818;6.516;2023-02-13T09:34:12;8.30;99.90
60723;DHT22;46574;52.818;6.516;2023-02-13T09:36:38;8.30;99.90
60723;DHT22;46574;52.818;6.516;2023-02-13T09:39:04;8.30;99.90
60723;DHT22;46574;52.818;6.516;2023-02-13T09:41:33;8.30;99.90
60723;DHT22;46574;52.818;6.516;2023-02-13T09:46:37;8.40;99.90
60723;DHT22;46574;52.818;6.516;2023-02-13T09:49:13;8.40;99.90
60723;DHT22;46574;52.818;6.516;2023-02-13T09:51:41;8.50;99.90
60723;DHT22;46574;52.818;6.516;2023-02-13T09:54:13;8.50;99.90
60723;DHT22;46574;52.818;6.516;2023-02-13T09:57:11;8.50;99.90
60723;DHT22;46574;52.818;6.516;2023-02-13T10:13:45;8.80;99.90
60723;DHT22;46574;52.818;6.516;2023-02-13T10:16:32;8.80;99.90
60723;DHT22;46574;52.818;6.516;2023-02-13T10:19:05;8.90;99.90
60723;DHT22;46574;52.818;6.516;2023-02-13T10:21:43;8.90;99.90
60723;DHT22;46574;52.818;6.516;2023-02-13T10:30:02;9.10;99.90
60723;DHT22;46574;52.818;6.516;2023-02-13T10:35:26;9.20;99.90
60723;DHT22;46574;52.818;6.516;2023-02-13T10:37:56;9.20;99.90
60723;DHT22;46574;52.818;6.516;2023-02-13T10:40:31;9.30;99.90
60723;DHT22;46574;52.818;6.516;2023-02-13T10:43:06;9.30;99.90
60723;DHT22;46574;52.818;6.516;2023-02-13T10:45:59;9.40;99.90
60723;DHT22;46574;52.818;6.516;2023-02-13T10:54:19;9.50;99.90
60723;DHT22;46574;52.818;6.516;2023-02-13T10:56:58;9.50;99.90
60723;DHT22;46574;52.818;6.516;2023-02-13T10:59:29;9.60;99.90
60723;DHT22;46574;52.818;6.516;2023-02-13T11:04:43;9.60;99.90
60723;DHT22;46574;52.818;6.516;2023-02-13T11:07:14;9.70;99.90
60723;DHT22;46574;52.818;6.516;2023-02-13T11:09:42;9.70;99.90
60723;DHT22;46574;52.818;6.516;2023-02-13T11:12:31;9.80;99.90
60723;DHT22;46574;52.818;6.516;2023-02-13T11:15:05;9.80;99.90
60723;DHT22;46574;52.818;6.516;2023-02-13T11:17:34;9.80;99.90
60723;DHT22;46574;52.818;6.516;2023-02-13T11:20:25;9.80;99.90
60723;DHT22;46574;52.818;6.516;2023-02-13T11:22:52;9.80;99.90
60723;DHT22;46574;52.818;6.516;2023-02-13T11:25:19;9.90;99.90
60723;DHT22;46574;52.818;6.516;2023-02-13T11:27:47;9.90;99.90
60723;DHT22;46574;52.818;6.516;2023-02-13T11:30:30;9.90;99.90
60723;DHT22;46574;52.818;6.516;2023-02-13T11:33:01;9.90;99.90
60723;DHT22;46574;52.818;6.516;2023-02-13T11:35:31;10.00;99.90
60723;DHT22;46574;52.818;6.516;2023-02-13T11:40:35;10.10;99.90
60723;DHT22;46574;52.818;6.516;2023-02-13T11:43:04;10.10;99.90
60723;DHT22;46574;52.818;6.516;2023-02-13T11:45:30;10.20;99.90
60723;DHT22;46574;52.818;6.516;2023-02-13T11:47:56;10.20;99.90
60723;DHT22;46574;52.818;6.516;2023-02-13T11:50:32;10.30;99.90
60723;DHT22;46574;52.818;6.516;2023-02-13T11:53:07;10.30;99.90
60723;DHT22;46574;52.818;6.516;2023-02-13T11:55:34;10.30;99.90
60723;DHT22;46574;52.818;6.516;2023-02-13T12:00:38;10.40;99.90
60723;DHT22;46574;52.818;6.516;2023-02-13T12:03:31;10.50;99.90
60723;DHT22;46574;52.818;6.516;2023-02-13T12:08:40;10.50;99.90
60723;DHT22;46574;52.818;6.516;2023-02-13T12:14:02;10.70;99.90
60723;DHT22;46574;52.818;6.516;2023-02-13T12:16:39;10.80;99.90
60723;DHT22;46574;52.818;6.516;2023-02-13T12:19:11;10.90;99.90
60723;DHT22;46574;52.818;6.516;2023-02-13T12:21:51;10.90;99.90
60723;DHT22;46574;52.818;6.516;2023-02-13T12:28:05;11.00;99.90
60723;DHT22;46574;52.818;6.516;2023-02-13T12:30:33;10.90;99.90
60723;DHT22;46574;52.818;6.516;2023-02-13T12:36:15;10.90;99.90
60723;DHT22;46574;52.818;6.516;2023-02-13T12:45:21;11.00;99.90
60723;DHT22;46574;52.818;6.516;2023-02-13T12:47:44;11.00;99.90
60723;DHT22;46574;52.818;6.516;2023-02-13T12:50:30;11.00;99.90
60723;DHT22;46574;52.818;6.516;2023-02-13T12:53:13;10.90;99.90
60723;DHT22;46574;52.818;6.516;2023-02-13T12:56:18;10.80;99.90
60723;DHT22;46574;52.818;6.516;2023-02-13T12:59:02;10.80;99.90
60723;DHT22;46574;52.818;6.516;2023-02-13T13:04:49;10.80;99.90
60723;DHT22;46574;52.818;6.516;2023-02-13T13:07:30;10.80;99.90
60723;DHT22;46574;52.818;6.516;2023-02-13T13:13:11;10.80;99.90
60723;DHT22;46574;52.818;6.516;2023-02-13T13:15:46;10.90;99.90
60723;DHT22;46574;52.818;6.516;2023-02-13T13:18:26;10.90;99.90
60723;DHT22;46574;52.818;6.516;2023-02-13T13:23:46;10.90;99.90
60723;DHT22;46574;52.818;6.516;2023-02-13T13:26:31;10.90;99.90
60723;DHT22;46574;52.818;6.516;2023-02-13T13:29:04;10.90;99.90
60723;DHT22;46574;52.818;6.516;2023-02-13T13:31:33;10.90;99.90
60723;DHT22;46574;52.818;6.516;2023-02-13T13:34:01;10.90;99.90
60723;DHT22;46574;52.818;6.516;2023-02-13T13:36:46;11.00;99.90
60723;DHT22;46574;52.818;6.516;2023-02-13T13:42:07;11.00;99.90
60723;DHT22;46574;52.818;6.516;2023-02-13T13:47:44;11.10;99.90
60723;DHT22;46574;52.818;6.516;2023-02-13T13:50:19;11.10;99.90
60723;DHT22;46574;52.818;6.516;2023-02-13T13:53:10;11.10;99.90
60723;DHT22;46574;52.818;6.516;2023-02-13T13:58:21;11.30;99.90
60723;DHT22;46574;52.818;6.516;2023-02-13T14:03:38;11.30;99.90
60723;DHT22;46574;52.818;6.516;2023-02-13T14:06:07;11.30;99.90
60723;DHT22;46574;52.818;6.516;2023-02-13T14:11:33;11.40;99.90
60723;DHT22;46574;52.818;6.516;2023-02-13T14:14:00;11.50;99.90
60723;DHT22;46574;52.818;6.516;2023-02-13T14:16:39;11.60;99.90
60723;DHT22;46574;52.818;6.516;2023-02-13T14:19:05;11.60;99.90
60723;DHT22;46574;52.818;6.516;2023-02-13T14:21:47;11.50;99.90
60723;DHT22;46574;52.818;6.516;2023-02-13T14:24:13;11.30;99.90
60723;DHT22;46574;52.818;6.516;2023-02-13T14:26:39;11.20;99.90
60723;DHT22;46574;52.818;6.516;2023-02-13T14:29:30;11.20;99.90
60723;DHT22;46574;52.818;6.516;2023-02-13T14:31:58;11.30;99.90
60723;DHT22;46574;52.818;6.516;2023-02-13T14:34:28;11.30;99.90
60723;DHT22;46574;52.818;6.516;2023-02-13T14:39:42;11.20;99.90
60723;DHT22;46574;52.818;6.516;2023-02-13T14:42:25;11.10;99.90
60723;DHT22;46574;52.818;6.516;2023-02-13T14:44:55;11.10;99.90
60723;DHT22;46574;52.818;6.516;2023-02-13T14:47:31;11.30;99.90
60723;DHT22;46574;52.818;6.516;2023-02-13T14:50:00;11.50;99.90
60723;DHT22;46574;52.818;6.516;2023-02-13T14:52:32;11.40;99.90
60723;DHT22;46574;52.818;6.516;2023-02-13T14:55:06;11.30;99.90
60723;DHT22;46574;52.818;6.516;2023-02-13T14:57:46;11.40;99.90
60723;DHT22;46574;52.818;6.516;2023-02-13T15:00:25;11.40;99.90
60723;DHT22;46574;52.818;6.516;2023-02-13T15:02:55;11.30;99.90
60723;DHT22;46574;52.818;6.516;2023-02-13T15:05:30;11.20;99.90
60723;DHT22;46574;52.818;6.516;2023-02-13T15:08:18;11.20;99.90
60723;DHT22;46574;52.818;6.516;2023-02-13T15:10:48;11.10;99.90
60723;DHT22;46574;52.818;6.516;2023-02-13T15:13:16;11.00;99.90
60723;DHT22;46574;52.818;6.516;2023-02-13T15:15:44;10.90;99.90
60723;DHT22;46574;52.818;6.516;2023-02-13T15:18:19;10.80;99.90
60723;DHT22;46574;52.818;6.516;2023-02-13T15:20:46;10.80;99.90
60723;DHT22;46574;52.818;6.516;2023-02-13T15:23:23;10.70;99.90
60723;DHT22;46574;52.818;6.516;2023-02-13T15:25:59;10.70;99.90
60723;DHT22;46574;52.818;6.516;2023-02-13T15:28:26;10.60;99.90
60723;DHT22;46574;52.818;6.516;2023-02-13T15:30:57;10.50;99.90
60723;DHT22;46574;52.818;6.516;2023-02-13T15:33:29;10.50;99.90
60723;DHT22;46574;52.818;6.516;2023-02-13T15:36:02;10.50;99.90
60723;DHT22;46574;52.818;6.516;2023-02-13T15:38:31;10.40;99.90
60723;DHT22;46574;52.818;6.516;2023-02-13T15:41:19;10.40;99.90
60723;DHT22;46574;52.818;6.516;2023-02-13T15:43:48;10.40;99.90
60723;DHT22;46574;52.818;6.516;2023-02-13T15:48:45;10.20;99.90
60723;DHT22;46574;52.818;6.516;2023-02-13T15:51:18;10.20;99.90
60723;DHT22;46574;52.818;6.516;2023-02-13T15:53:58;10.20;99.90
60723;DHT22;46574;52.818;6.516;2023-02-13T15:56:25;10.10;99.90
60723;DHT22;46574;52.818;6.516;2023-02-13T15:58:52;10.10;99.90
60723;DHT22;46574;52.818;6.516;2023-02-13T16:01:18;10.10;99.90
60723;DHT22;46574;52.818;6.516;2023-02-13T16:03:47;10.00;99.90
60723;DHT22;46574;52.818;6.516;2023-02-13T16:06:15;10.00;99.90
60723;DHT22;46574;52.818;6.516;2023-02-13T16:09:00;9.90;99.90
60723;DHT22;46574;52.818;6.516;2023-02-13T16:11:34;9.80;99.90
60723;DHT22;46574;52.818;6.516;2023-02-13T16:14:18;9.70;99.90
60723;DHT22;46574;52.818;6.516;2023-02-13T16:17:06;9.60;99.90
60723;DHT22;46574;52.818;6.516;2023-02-13T16:30:53;9.00;99.90
60723;DHT22;46574;52.818;6.516;2023-02-13T16:35:53;8.80;99.90
60723;DHT22;46574;52.818;6.516;2023-02-13T16:38:35;8.70;99.90
60723;DHT22;46574;52.818;6.516;2023-02-13T16:41:49;8.70;99.90
60723;DHT22;46574;52.818;6.516;2023-02-13T16:43:51;8.50;99.90
60723;DHT22;46574;52.818;6.516;2023-02-13T16:53:59;8.20;99.90
60723;DHT22;46574;52.818;6.516;2023-02-13T16:56:26;8.10;99.90
60723;DHT22;46574;52.818;6.516;2023-02-13T17:02:28;8.00;99.90
60723;DHT22;46574;52.818;6.516;2023-02-13T17:07:43;7.80;99.90
60723;DHT22;46574;52.818;6.516;2023-02-13T17:10:34;7.60;99.90
60723;DHT22;46574;52.818;6.516;2023-02-13T17:15:33;7.50;99.90
60723;DHT22;46574;52.818;6.516;2023-02-13T17:17:59;7.40;99.90
60723;DHT22;46574;52.818;6.516;2023-02-13T17:20:31;7.30;99.90
60723;DHT22;46574;52.818;6.516;2023-02-13T17:22:59;7.20;99.90
60723;DHT22;46574;52.818;6.516;2023-02-13T17:25:30;7.10;99.90
60723;DHT22;46574;52.818;6.516;2023-02-13T17:27:59;7.10;99.90
60723;DHT22;46574;52.818;6.516;2023-02-13T17:30:27;7.00;99.90
60723;DHT22;46574;52.818;6.516;2023-02-13T17:32:57;6.90;99.90
60723;DHT22;46574;52.818;6.516;2023-02-13T17:35:23;6.80;99.90
60723;DHT22;46574;52.818;6.516;2023-02-13T17:37:49;6.80;99.90
60723;DHT22;46574;52.818;6.516;2023-02-13T17:40:20;6.70;99.90
60723;DHT22;46574;52.818;6.516;2023-02-13T17:42:51;6.70;99.90
60723;DHT22;46574;52.818;6.516;2023-02-13T17:45:20;6.60;99.90
60723;DHT22;46574;52.818;6.516;2023-02-13T17:47:46;6.60;99.90
60723;DHT22;46574;52.818;6.516;2023-02-13T17:50:13;6.50;99.90
60723;DHT22;46574;52.818;6.516;2023-02-13T17:52:42;6.50;99.90
60723;DHT22;46574;52.818;6.516;2023-02-13T17:55:29;6.50;99.90
60723;DHT22;46574;52.818;6.516;2023-02-13T17:57:56;6.50;99.90
60723;DHT22;46574;52.818;6.516;2023-02-13T18:00:24;6.40;99.90
60723;DHT22;46574;52.818;6.516;2023-02-13T18:02:51;6.30;99.90
60723;DHT22;46574;52.818;6.516;2023-02-13T18:05:17;6.30;99.90
60723;DHT22;46574;52.818;6.516;2023-02-13T18:07:44;6.30;99.90
60723;DHT22;46574;52.818;6.516;2023-02-13T18:10:20;6.30;99.90
60723;DHT22;46574;52.818;6.516;2023-02-13T18:12:47;6.30;99.90
60723;DHT22;46574;52.818;6.516;2023-02-13T18:15:14;6.20;99.90
60723;DHT22;46574;52.818;6.516;2023-02-13T18:17:40;6.20;99.90
60723;DHT22;46574;52.818;6.516;2023-02-13T18:20:09;6.10;99.90
60723;DHT22;46574;52.818;6.516;2023-02-13T18:22:35;6.10;99.90
60723;DHT22;46574;52.818;6.516;2023-02-13T18:25:00;6.10;99.90
60723;DHT22;46574;52.818;6.516;2023-02-13T18:27:26;6.00;99.90
60723;DHT22;46574;52.818;6.516;2023-02-13T18:29:53;6.00;99.90
60723;DHT22;46574;52.818;6.516;2023-02-13T18:32:20;6.00;99.90
60723;DHT22;46574;52.818;6.516;2023-02-13T18:34:45;6.00;99.90
60723;DHT22;46574;52.818;6.516;2023-02-13T18:37:12;5.90;99.90
60723;DHT22;46574;52.818;6.516;2023-02-13T18:39:38;5.90;99.90
60723;DHT22;46574;52.818;6.516;2023-02-13T18:42:04;5.90;99.90
60723;DHT22;46574;52.818;6.516;2023-02-13T18:44:31;5.90;99.90